Terminal Aerodrome Forecast
Issued by NWS

Home | Current Version | Previous Version | Text Only | Print | Product List | Glossary On
Versions: 1 2 3 4 5 6 7 8 9 10 11 12 13 14 15 16 17 18 19
000
FTUS46 KSGX 201700
TAFSNA
TAF
KSNA 201726Z 2018/2118 13006KT P6SM BKN025
     FM201900 22009KT P6SM SCT025
     FM210200 20005KT P6SM SCT022
     FM210400 VRB04KT P6SM BKN020
     FM211700 VRB04KT P6SM SCT025=

USA.gov is the U.S. government's official web portal to all federal, state and local government web resources and services.